Time;durP1;ratioP1;P1;durP2;ratioP2;P2;SDS_P1;SDS_P2;PMS_P1;PMS_P2;Temp;Humidity;BMP_temperature;BMP_pressure;BME280_temperature;BME280_humidity;BME280_pressure;Samples;Min_cycle;Max_cycle;Signal;HPM_P1;HPM_P2
2021/04/28 00:02:21;;;;;;;10.25;5.47;;;12.10;75.70;;;;;;4878280;29;20035;-80
2021/04/28 00:04:47;;;;;;;11.90;5.53;;;12.10;76.10;;;;;;4865351;29;20064;-75
2021/04/28 00:07:13;;;;;;;19.02;5.40;;;12.10;76.00;;;;;;4859547;29;20133;-81
2021/04/28 00:09:38;;;;;;;14.93;5.43;;;12.00;76.30;;;;;;4859611;29;20573;-80
2021/04/28 00:12:05;;;;;;;9.35;5.03;;;11.90;76.30;;;;;;4876815;29;20029;-75
2021/04/28 00:14:31;;;;;;;14.98;5.95;;;11.90;76.50;;;;;;4875639;29;20080;-81
2021/04/28 00:16:58;;;;;;;14.25;5.93;;;11.80;76.70;;;;;;4861243;29;20516;-75
2021/04/28 00:19:24;;;;;;;9.00;5.43;;;11.90;77.00;;;;;;4878056;29;20142;-75
2021/04/28 00:21:50;;;;;;;12.45;5.63;;;11.80;77.20;;;;;;4866284;29;20070;-75
2021/04/28 00:24:15;;;;;;;8.52;5.40;;;11.80;77.90;;;;;;4859039;29;20033;-75
2021/04/28 00:26:41;;;;;;;10.13;5.50;;;11.80;77.60;;;;;;4866113;29;20108;-75
2021/04/28 00:29:07;;;;;;;11.48;5.80;;;11.70;77.90;;;;;;4878487;29;20029;-75
2021/04/28 00:31:33;;;;;;;15.30;6.18;;;11.70;78.30;;;;;;4878304;29;20068;-81
2021/04/28 00:34:00;;;;;;;14.55;5.85;;;11.70;78.30;;;;;;4878049;29;20093;-81
2021/04/28 00:36:26;;;;;;;14.13;5.35;;;11.60;78.80;;;;;;4878104;29;20476;-75
2021/04/28 00:38:52;;;;;;;16.63;6.35;;;11.60;78.50;;;;;;4877751;29;20025;-75
2021/04/28 00:41:19;;;;;;;16.30;6.03;;;11.60;78.60;;;;;;4878422;29;20539;-81
2021/04/28 00:43:45;;;;;;;11.93;5.40;;;11.60;78.90;;;;;;4880600;29;20031;-81
2021/04/28 00:46:12;;;;;;;10.60;6.30;;;11.60;79.00;;;;;;4895628;29;20152;-81
2021/04/28 00:48:37;;;;;;;10.50;5.75;;;11.60;79.10;;;;;;4896561;29;20073;-75
2021/04/28 00:51:03;;;;;;;13.57;5.80;;;11.50;79.10;;;;;;4881968;29;20049;-75
2021/04/28 00:53:29;;;;;;;15.90;6.47;;;11.50;79.10;;;;;;4877854;29;20029;-81
2021/04/28 00:55:56;;;;;;;14.93;5.88;;;11.50;79.20;;;;;;4877968;29;20037;-81
2021/04/28 00:58:24;;;;;;;12.68;5.38;;;11.50;79.60;;;;;;4886079;29;20040;-81
2021/04/28 01:00:50;;;;;;;10.65;6.35;;;11.40;79.50;;;;;;4880121;29;20556;-75
2021/04/28 01:03:23;;;;;;;13.73;6.30;;;11.40;79.80;;;;;;4878702;29;20029;-75
2021/04/28 01:05:52;;;;;;;11.70;5.53;;;11.40;79.70;;;;;;4879388;29;20029;-81
2021/04/28 01:08:19;;;;;;;15.75;5.82;;;11.40;79.70;;;;;;4877688;29;20112;-75
2021/04/28 01:10:45;;;;;;;17.92;5.38;;;11.40;79.50;;;;;;4885423;29;20169;-75
2021/04/28 01:13:11;;;;;;;9.50;5.60;;;11.40;79.70;;;;;;4895041;29;20499;-75
2021/04/28 01:15:38;;;;;;;13.40;5.35;;;11.50;79.60;;;;;;4894858;29;20107;-75
2021/04/28 01:18:04;;;;;;;11.77;5.68;;;11.50;79.70;;;;;;4896311;29;20036;-75
2021/04/28 01:20:34;;;;;;;16.33;6.15;;;11.50;79.50;;;;;;4882271;29;20105;-75
2021/04/28 01:23:00;;;;;;;10.38;5.47;;;11.60;79.30;;;;;;4898932;29;20048;-81
2021/04/28 01:25:27;;;;;;;11.02;5.63;;;11.60;79.30;;;;;;4898738;29;20116;-81
2021/04/28 01:28:16;;;;;;;11.18;6.05;;;11.60;79.30;;;;;;4879826;29;20396;-75
2021/04/28 01:30:44;;;;;;;10.93;5.53;;;11.70;79.10;;;;;;4889624;29;20059;-75
2021/04/28 01:33:15;;;;;;;9.80;5.15;;;11.70;79.00;;;;;;4882459;29;20512;-81
2021/04/28 01:35:43;;;;;;;8.73;5.75;;;11.70;79.00;;;;;;4899861;29;20033;-76
2021/04/28 01:38:09;;;;;;;11.40;6.35;;;11.80;78.30;;;;;;4899152;29;20035;-81
2021/04/28 01:40:37;;;;;;;10.88;5.20;;;11.80;78.20;;;;;;4899018;29;20037;-81
2021/04/28 01:43:04;;;;;;;9.95;5.25;;;11.80;78.10;;;;;;4899081;29;20110;-75
2021/04/28 01:45:33;;;;;;;13.20;6.50;;;11.80;78.10;;;;;;4880099;29;20492;-81
2021/04/28 01:48:02;;;;;;;8.05;6.07;;;11.80;78.20;;;;;;4899034;29;20388;-81
2021/04/28 01:50:28;;;;;;;9.88;5.22;;;11.80;78.20;;;;;;4881737;29;20033;-81
2021/04/28 01:52:55;;;;;;;12.00;6.20;;;11.80;78.50;;;;;;4899361;29;20084;-75
2021/04/28 01:55:20;;;;;;;13.18;6.20;;;11.80;78.10;;;;;;4899121;29;20039;-81
2021/04/28 01:57:47;;;;;;;10.45;5.93;;;11.70;78.20;;;;;;4892293;29;20111;-75
2021/04/28 02:00:16;;;;;;;14.90;6.88;;;11.70;78.30;;;;;;4899275;29;20032;-81
2021/04/28 02:02:42;;;;;;;8.32;5.57;;;11.70;78.20;;;;;;4899055;29;20025;-81
2021/04/28 02:05:09;;;;;;;17.38;5.97;;;11.70;78.50;;;;;;4878622;29;20119;-81
2021/04/28 02:07:34;;;;;;;11.85;6.10;;;11.60;78.70;;;;;;4899159;29;20047;-75
2021/04/28 02:10:01;;;;;;;13.25;6.28;;;11.60;78.90;;;;;;4898795;29;20108;-81
2021/04/28 02:12:28;;;;;;;13.52;5.70;;;11.60;79.10;;;;;;4897793;29;20021;-81
2021/04/28 02:14:55;;;;;;;10.45;6.20;;;11.60;79.30;;;;;;4897638;29;20070;-75
2021/04/28 02:17:21;;;;;;;14.13;7.10;;;11.50;79.40;;;;;;4898251;29;20488;-81
2021/04/28 02:19:48;;;;;;;12.82;6.38;;;11.50;79.40;;;;;;4899205;29;20064;-81
2021/04/28 02:22:14;;;;;;;15.57;6.38;;;11.50;79.80;;;;;;4883817;29;20033;-75
2021/04/28 02:24:41;;;;;;;12.20;6.60;;;11.60;79.60;;;;;;4879817;29;20048;-81
2021/04/28 02:27:06;;;;;;;10.98;5.85;;;11.50;79.20;;;;;;4872054;29;20029;-76
2021/04/28 02:29:33;;;;;;;12.70;7.18;;;11.50;79.30;;;;;;4898795;29;20547;-75
2021/04/28 02:31:59;;;;;;;9.73;5.75;;;11.50;79.40;;;;;;4898449;29;20024;-75
2021/04/28 02:34:25;;;;;;;12.35;6.43;;;11.50;79.40;;;;;;4898278;29;20099;-75
2021/04/28 02:36:54;;;;;;;10.20;6.28;;;11.50;79.30;;;;;;4898530;29;20021;-75
2021/04/28 02:39:37;;;;;;;13.20;6.32;;;11.50;79.40;;;;;;4898327;29;20035;-75
2021/04/28 02:42:04;;;;;;;16.67;7.30;;;11.50;79.30;;;;;;4894258;29;20044;-76
2021/04/28 02:44:32;;;;;;;13.57;6.25;;;11.60;79.10;;;;;;4893565;29;20393;-81
2021/04/28 02:46:58;;;;;;;11.80;6.53;;;11.60;79.00;;;;;;4896202;29;20020;-76
2021/04/28 02:49:24;;;;;;;12.95;6.63;;;11.60;79.00;;;;;;4892436;29;20036;-81
2021/04/28 02:51:51;;;;;;;20.75;6.85;;;11.60;79.00;;;;;;4886414;29;20028;-75
2021/04/28 02:54:21;;;;;;;15.77;6.43;;;11.50;79.30;;;;;;4898044;29;20381;-75
2021/04/28 02:56:52;;;;;;;16.75;7.13;;;11.60;79.50;;;;;;4893739;29;20055;-75
2021/04/28 02:59:19;;;;;;;16.30;6.90;;;11.60;80.00;;;;;;4896025;29;20040;-75
2021/04/28 03:01:46;;;;;;;16.33;6.70;;;11.60;79.70;;;;;;4898057;29;20029;-76
2021/04/28 03:04:14;;;;;;;9.45;5.95;;;11.60;79.50;;;;;;4889594;29;20037;-81
2021/04/28 03:06:40;;;;;;;13.85;6.20;;;11.60;79.30;;;;;;4862644;29;20032;-81
2021/04/28 03:09:06;;;;;;;11.25;5.70;;;11.60;79.50;;;;;;4878834;29;20033;-75
2021/04/28 03:11:33;;;;;;;15.10;6.75;;;11.60;79.70;;;;;;4893047;29;20035;-81
2021/04/28 03:13:59;;;;;;;9.98;6.38;;;11.60;79.60;;;;;;4897164;29;20056;-75
2021/04/28 03:16:24;;;;;;;17.33;7.38;;;11.60;80.20;;;;;;4897570;29;20028;-81
2021/04/28 03:18:51;;;;;;;11.10;5.70;;;11.70;80.00;;;;;;4897688;29;20492;-81
2021/04/28 03:21:19;;;;;;;12.32;7.15;;;11.60;80.10;;;;;;4897536;29;20114;-78
2021/04/28 03:23:46;;;;;;;12.02;6.60;;;11.60;79.90;;;;;;4895694;29;20040;-81
2021/04/28 03:26:12;;;;;;;16.33;7.32;;;11.70;79.70;;;;;;4889379;29;20056;-75
2021/04/28 03:28:38;;;;;;;21.40;7.50;;;11.60;79.70;;;;;;4894337;29;20473;-81
2021/04/28 03:31:04;;;;;;;16.05;6.97;;;11.70;80.10;;;;;;4880846;29;20077;-81
2021/04/28 03:33:30;;;;;;;18.35;7.20;;;11.70;80.40;;;;;;4897452;29;20063;-76
2021/04/28 03:35:55;;;;;;;20.75;8.18;;;11.60;80.00;;;;;;4897464;29;20045;-75
2021/04/28 03:38:21;;;;;;;20.30;7.63;;;11.60;80.30;;;;;;4897091;29;20103;-75
2021/04/28 03:40:46;;;;;;;15.05;7.22;;;11.70;80.30;;;;;;4877299;29;20412;-81
2021/04/28 03:43:12;;;;;;;19.08;7.85;;;11.70;80.80;;;;;;4882811;29;20048;-81
2021/04/28 03:45:38;;;;;;;13.70;7.78;;;11.70;80.00;;;;;;4889749;29;20052;-82
2021/04/28 03:48:04;;;;;;;15.60;8.40;;;11.70;80.00;;;;;;4897007;29;20088;-75
2021/04/28 03:50:30;;;;;;;21.90;8.18;;;11.60;80.50;;;;;;4869901;29;20037;-76
2021/04/28 03:52:58;;;;;;;12.00;7.07;;;11.60;80.30;;;;;;4895312;29;20047;-76
2021/04/28 03:55:24;;;;;;;18.73;7.45;;;11.60;80.80;;;;;;4897102;29;20168;-75
2021/04/28 03:57:49;;;;;;;16.83;7.55;;;11.60;80.70;;;;;;4889752;29;20107;-75
2021/04/28 04:00:16;;;;;;;23.85;8.10;;;11.60;80.40;;;;;;4897029;29;20384;-81
2021/04/28 04:02:41;;;;;;;12.50;6.90;;;11.60;80.00;;;;;;4896685;29;20040;-76
2021/04/28 04:05:08;;;;;;;14.15;7.20;;;11.50;80.20;;;;;;4876280;29;20053;-76
2021/04/28 04:07:33;;;;;;;16.50;7.65;;;11.50;80.20;;;;;;4896961;29;20503;-80
2021/04/28 04:09:59;;;;;;;11.85;7.35;;;11.50;80.50;;;;;;4897229;29;20029;-81
2021/04/28 04:12:25;;;;;;;14.40;8.40;;;11.50;80.70;;;;;;4895766;29;20075;-75
2021/04/28 04:14:50;;;;;;;19.08;8.48;;;11.50;81.10;;;;;;4896894;29;20084;-81
2021/04/28 04:17:16;;;;;;;14.70;7.93;;;11.50;81.40;;;;;;4896643;29;20396;-75
2021/04/28 04:19:42;;;;;;;24.20;8.60;;;11.40;81.40;;;;;;4896874;29;20032;-81
2021/04/28 04:22:08;;;;;;;19.65;9.27;;;11.50;81.60;;;;;;4882690;29;20455;-81
2021/04/28 04:24:33;;;;;;;16.60;7.65;;;11.50;81.10;;;;;;4877212;29;20081;-81
2021/04/28 04:26:59;;;;;;;13.32;7.95;;;11.50;81.30;;;;;;4880052;29;20056;-76
2021/04/28 04:29:26;;;;;;;13.88;8.10;;;11.50;81.50;;;;;;4896600;29;20100;-81
2021/04/28 04:31:51;;;;;;;17.40;8.73;;;11.50;81.60;;;;;;4896668;29;20031;-75
2021/04/28 04:34:17;;;;;;;25.10;9.82;;;11.40;81.80;;;;;;4896818;29;20033;-75
2021/04/28 04:36:43;;;;;;;14.32;7.85;;;11.40;82.20;;;;;;4879993;29;20605;-75
2021/04/28 04:39:09;;;;;;;14.30;9.25;;;11.30;82.20;;;;;;4879232;29;20033;-75
2021/04/28 04:41:34;;;;;;;16.38;8.23;;;11.30;81.80;;;;;;4863453;29;20056;-75
2021/04/28 04:44:00;;;;;;;16.85;8.50;;;11.20;81.90;;;;;;4863484;29;20036;-75
2021/04/28 04:46:26;;;;;;;16.73;8.18;;;11.10;81.80;;;;;;4896354;29;20032;-80
2021/04/28 04:48:51;;;;;;;18.05;8.73;;;11.10;81.50;;;;;;4896188;29;20062;-80
2021/04/28 04:51:17;;;;;;;22.67;9.75;;;11.10;81.00;;;;;;4896385;29;20116;-81
2021/04/28 04:53:43;;;;;;;18.08;8.52;;;11.10;81.20;;;;;;4896185;29;20499;-81
2021/04/28 04:56:09;;;;;;;17.02;8.05;;;11.00;80.80;;;;;;4893359;29;20125;-75
2021/04/28 04:58:35;;;;;;;25.27;8.52;;;11.00;80.60;;;;;;4891355;29;20040;-75
2021/04/28 05:01:00;;;;;;;16.02;8.85;;;11.00;80.50;;;;;;4899671;29;20039;-80
2021/04/28 05:03:26;;;;;;;20.35;9.38;;;11.00;80.30;;;;;;4897698;29;20107;-80
2021/04/28 05:05:52;;;;;;;16.83;9.05;;;11.00;80.30;;;;;;4900181;29;20032;-80
2021/04/28 05:08:17;;;;;;;13.95;7.65;;;11.00;80.40;;;;;;4883273;29;20456;-75
2021/04/28 05:10:43;;;;;;;13.50;7.38;;;11.00;79.90;;;;;;4896832;29;20058;-80
2021/04/28 05:13:10;;;;;;;18.15;8.93;;;11.00;79.90;;;;;;4881469;29;20037;-76
2021/04/28 05:15:36;;;;;;;16.50;9.00;;;11.10;79.70;;;;;;4899625;29;20507;-76
2021/04/28 05:18:02;;;;;;;17.30;9.43;;;11.10;79.30;;;;;;4902413;29;20032;-76
2021/04/28 05:20:28;;;;;;;12.77;8.07;;;11.10;79.60;;;;;;4900365;29;20092;-80
2021/04/28 05:22:53;;;;;;;20.15;8.25;;;11.10;78.20;;;;;;4883258;29;20064;-75
2021/04/28 05:25:19;;;;;;;14.02;7.70;;;11.10;78.40;;;;;;4899646;29;20055;-81
2021/04/28 05:27:45;;;;;;;21.13;8.45;;;11.10;78.70;;;;;;4904168;29;20032;-76
2021/04/28 05:30:11;;;;;;;18.38;8.45;;;11.20;77.70;;;;;;4905500;29;20025;-81
2021/04/28 05:32:40;;;;;;;23.55;9.20;;;11.30;77.20;;;;;;4906998;29;20025;-76
2021/04/28 05:35:06;;;;;;;17.13;8.65;;;11.40;77.10;;;;;;4908047;29;20033;-76
2021/04/28 05:37:32;;;;;;;21.95;9.27;;;11.40;76.40;;;;;;4885561;29;20029;-75
2021/04/28 05:39:58;;;;;;;14.60;8.52;;;11.50;77.50;;;;;;4890425;29;20389;-77
2021/04/28 05:42:24;;;;;;;14.65;8.30;;;11.40;77.60;;;;;;4883135;29;20056;-80
2021/04/28 05:44:49;;;;;;;21.55;9.13;;;11.40;77.10;;;;;;4881871;29;20452;-74
2021/04/28 05:47:15;;;;;;;18.50;9.65;;;11.40;78.70;;;;;;4885009;29;20547;-75
2021/04/28 05:49:41;;;;;;;19.05;8.73;;;11.30;77.60;;;;;;4893494;29;20035;-75
2021/04/28 05:52:07;;;;;;;18.90;8.45;;;11.30;78.20;;;;;;4880216;29;20488;-74
2021/04/28 05:54:33;;;;;;;17.50;9.82;;;11.30;79.00;;;;;;4879996;29;20101;-78
2021/04/28 05:56:58;;;;;;;17.33;7.95;;;11.20;80.00;;;;;;4878900;29;20033;-78
2021/04/28 05:59:24;;;;;;;20.35;9.68;;;11.20;79.40;;;;;;4896219;29;20511;-78
2021/04/28 06:01:50;;;;;;;16.15;8.57;;;11.20;79.90;;;;;;4889712;29;20093;-74
2021/04/28 06:04:16;;;;;;;16.88;8.82;;;11.30;80.50;;;;;;4897593;29;20063;-74
2021/04/28 06:06:43;;;;;;;17.10;8.98;;;11.30;81.50;;;;;;4898824;29;20088;-78
2021/04/28 06:09:08;;;;;;;18.08;10.38;;;11.30;82.40;;;;;;4894133;29;20037;-75
2021/04/28 06:11:34;;;;;;;21.15;9.70;;;11.40;83.00;;;;;;4890425;29;20107;-75
2021/04/28 06:14:00;;;;;;;20.08;9.77;;;11.40;83.20;;;;;;4895416;29;20032;-75
2021/04/28 06:16:25;;;;;;;17.60;10.05;;;11.40;83.20;;;;;;4884991;29;20140;-75
2021/04/28 06:18:52;;;;;;;18.95;10.80;;;11.40;83.80;;;;;;4880086;29;20033;-75
2021/04/28 06:21:18;;;;;;;16.73;9.45;;;11.40;83.70;;;;;;4885906;29;20111;-74
2021/04/28 06:23:44;;;;;;;29.85;9.90;;;11.30;83.50;;;;;;4894268;29;20111;-77
2021/04/28 06:26:10;;;;;;;20.85;10.43;;;11.30;83.40;;;;;;4886146;29;20029;-74
2021/04/28 06:28:35;;;;;;;18.50;9.48;;;11.30;84.30;;;;;;4890863;29;20478;-75
2021/04/28 06:31:01;;;;;;;20.23;9.80;;;11.40;83.50;;;;;;4880662;29;20033;-77
2021/04/28 06:33:27;;;;;;;18.38;10.13;;;11.40;83.70;;;;;;4892836;29;20044;-77
2021/04/28 06:35:53;;;;;;;21.65;9.35;;;11.50;83.90;;;;;;4893452;29;20040;-75
2021/04/28 06:38:19;;;;;;;26.77;9.68;;;11.60;84.30;;;;;;4894062;29;20033;-77
2021/04/28 06:40:45;;;;;;;16.42;10.00;;;11.70;83.20;;;;;;4882611;29;20044;-74
2021/04/28 06:43:10;;;;;;;17.55;10.25;;;11.90;82.50;;;;;;4883661;29;20472;-74
2021/04/28 06:45:36;;;;;;;24.05;10.30;;;12.10;81.10;;;;;;4885677;29;20056;-74
2021/04/28 06:48:03;;;;;;;20.00;9.85;;;12.10;81.40;;;;;;4893170;29;20097;-78
2021/04/28 06:50:29;;;;;;;20.13;10.65;;;12.20;81.40;;;;;;4888818;29;20036;-78
2021/04/28 06:52:55;;;;;;;20.20;8.52;;;12.30;81.40;;;;;;4892606;29;20101;-78
2021/04/28 06:55:21;;;;;;;22.80;9.48;;;12.30;80.80;;;;;;4859745;29;20040;-78
2021/04/28 06:57:52;;;;;;;24.85;10.35;;;12.20;79.50;;;;;;4885326;29;20032;-75
2021/04/28 07:00:19;;;;;;;16.38;8.85;;;12.20;78.20;;;;;;4886525;29;20033;-78
2021/04/28 07:02:45;;;;;;;21.38;9.55;;;12.10;78.60;;;;;;4885670;29;20086;-74
2021/04/28 07:05:11;;;;;;;12.85;9.15;;;12.10;78.20;;;;;;4896951;29;20059;-74
2021/04/28 07:07:37;;;;;;;18.55;9.63;;;12.10;79.60;;;;;;4895201;29;20052;-74
2021/04/28 07:10:04;;;;;;;18.08;10.43;;;12.00;78.90;;;;;;4892145;29;20057;-78
2021/04/28 07:12:30;;;;;;;22.98;10.02;;;12.10;78.70;;;;;;4878848;29;20032;-74
2021/04/28 07:14:55;;;;;;;37.22;11.10;;;12.00;79.80;;;;;;4895056;29;20369;-74
2021/04/28 07:17:21;;;;;;;25.30;10.82;;;11.90;80.40;;;;;;4893175;29;20037;-74
2021/04/28 07:19:46;;;;;;;18.50;10.25;;;11.80;80.40;;;;;;4895167;29;20083;-74
2021/04/28 07:22:12;;;;;;;18.98;10.27;;;11.80;79.80;;;;;;4881044;29;20029;-79
2021/04/28 07:24:38;;;;;;;45.45;12.23;;;12.00;79.90;;;;;;4887650;29;20024;-79
2021/04/28 07:27:03;;;;;;;22.23;9.65;;;12.20;79.60;;;;;;4890973;29;20400;-75
2021/04/28 07:29:29;;;;;;;24.35;11.27;;;12.20;78.30;;;;;;4883644;29;20492;-78
2021/04/28 07:31:55;;;;;;;16.70;9.52;;;12.40;77.90;;;;;;4892498;29;20033;-74
2021/04/28 07:34:20;;;;;;;16.67;9.93;;;12.60;77.60;;;;;;4883725;29;20036;-75
2021/04/28 07:36:46;;;;;;;16.40;9.05;;;12.50;77.00;;;;;;4894315;29;20028;-82
2021/04/28 07:39:12;;;;;;;15.15;9.82;;;12.40;78.10;;;;;;4884846;29;20648;-86
2021/04/28 07:41:38;;;;;;;24.27;9.77;;;12.70;77.90;;;;;;4893556;29;20064;-88
2021/04/28 07:44:04;;;;;;;19.50;9.18;;;13.00;75.90;;;;;;4895242;29;20029;-76
2021/04/28 07:46:32;;;;;;;20.27;10.65;;;13.30;75.10;;;;;;4872249;29;20064;-76
2021/04/28 07:49:03;;;;;;;18.20;9.73;;;13.50;73.40;;;;;;4887327;29;20116;-88
2021/04/28 07:51:30;;;;;;;23.40;9.80;;;13.70;72.60;;;;;;4894952;29;20033;-85
2021/04/28 07:53:56;;;;;;;16.45;9.05;;;14.40;70.90;;;;;;4877827;29;20032;-88
2021/04/28 07:56:22;;;;;;;12.93;9.50;;;16.80;62.70;;;;;;4891143;29;20409;-76
2021/04/28 07:58:47;;;;;;;15.38;9.32;;;19.80;53.80;;;;;;4892376;29;20373;-78
2021/04/28 08:01:13;;;;;;;20.60;9.68;;;20.70;49.40;;;;;;4894310;29;20492;-86
2021/04/28 08:03:39;;;;;;;18.52;9.73;;;21.60;46.70;;;;;;4872249;29;20480;-85
2021/04/28 08:06:04;;;;;;;17.77;9.30;;;22.40;45.70;;;;;;4889660;29;20044;-86
2021/04/28 08:08:30;;;;;;;22.27;10.02;;;23.70;42.70;;;;;;4889573;29;20033;-84
2021/04/28 08:10:56;;;;;;;14.93;10.50;;;24.40;41.40;;;;;;4859508;29;20132;-78
2021/04/28 08:13:21;;;;;;;17.25;9.60;;;24.40;40.90;;;;;;4887910;29;20433;-77
2021/04/28 08:15:47;;;;;;;16.40;9.93;;;25.00;39.30;;;;;;4889585;29;20043;-82
2021/04/28 08:18:13;;;;;;;18.02;10.80;;;24.30;40.30;;;;;;4891716;29;20046;-82
2021/04/28 08:20:39;;;;;;;17.45;10.52;;;24.50;39.40;;;;;;4891388;29;20460;-78
2021/04/28 08:23:05;;;;;;;17.80;10.38;;;24.70;39.40;;;;;;4876551;29;20468;-80
2021/04/28 08:25:31;;;;;;;11.65;9.38;;;25.20;38.50;;;;;;4877431;29;20029;-77
2021/04/28 08:27:59;;;;;;;14.00;9.48;;;25.80;37.40;;;;;;4887423;29;20387;-79
2021/04/28 08:30:24;;;;;;;18.35;10.55;;;26.80;36.50;;;;;;4886016;29;20441;-88
2021/04/28 08:32:50;;;;;;;13.93;10.38;;;27.10;36.20;;;;;;4872857;29;20084;-86
2021/04/28 08:35:16;;;;;;;12.40;9.80;;;26.50;35.70;;;;;;4874822;29;20060;-86
2021/04/28 08:37:46;;;;;;;18.33;10.65;;;26.20;36.60;;;;;;4881533;29;20084;-79
2021/04/28 08:40:13;;;;;;;14.65;10.38;;;26.00;36.60;;;;;;4892639;29;20032;-79
2021/04/28 08:42:40;;;;;;;15.70;10.05;;;26.60;36.40;;;;;;4876356;29;20420;-82
2021/04/28 08:45:06;;;;;;;15.65;11.27;;;26.80;35.40;;;;;;4886275;29;20041;-79
2021/04/28 08:47:33;;;;;;;15.48;10.68;;;27.30;33.50;;;;;;4874222;29;20111;-80
2021/04/28 08:49:59;;;;;;;20.05;10.32;;;27.80;33.20;;;;;;4890764;29;20044;-79
2021/04/28 08:52:25;;;;;;;17.42;11.57;;;26.90;34.40;;;;;;4891497;29;20420;-83
2021/04/28 08:54:51;;;;;;;14.93;10.15;;;27.10;33.60;;;;;;4867753;29;20405;-82
2021/04/28 08:57:17;;;;;;;21.05;11.35;;;26.50;33.90;;;;;;4885803;29;20025;-82
2021/04/28 08:59:44;;;;;;;15.63;10.40;;;27.30;33.60;;;;;;4870410;29;20039;-79
2021/04/28 09:02:22;;;;;;;17.63;10.90;;;27.40;33.00;;;;;;4891397;29;20029;-83
2021/04/28 09:05:11;;;;;;;16.05;10.80;;;27.50;33.20;;;;;;4880340;29;20488;-79
2021/04/28 09:07:39;;;;;;;14.90;10.48;;;27.10;33.50;;;;;;4877667;29;20032;-83
2021/04/28 09:10:28;;;;;;;13.15;10.20;;;26.80;35.40;;;;;;4874219;29;20033;-79
2021/04/28 09:12:57;;;;;;;13.98;10.43;;;27.80;33.40;;;;;;4864596;29;20041;-81
2021/04/28 09:15:33;;;;;;;15.38;11.52;;;27.10;32.90;;;;;;4887313;29;20488;-76
2021/04/28 09:17:59;;;;;;;16.75;10.73;;;27.30;35.40;;;;;;4886322;29;20080;-75
2021/04/28 09:20:37;;;;;;;23.13;10.10;;;28.10;33.40;;;;;;4890412;29;20040;-81
2021/04/28 09:23:05;;;;;;;15.60;10.85;;;27.30;33.90;;;;;;4874478;29;20108;-80
2021/04/28 09:25:34;;;;;;;16.45;10.13;;;26.20;35.80;;;;;;4875699;29;20029;-80
2021/04/28 09:28:29;;;;;;;16.88;10.68;;;26.70;36.00;;;;;;4888777;29;20392;-76
2021/04/28 09:31:07;;;;;;;22.40;10.80;;;27.30;33.50;;;;;;4873989;29;20123;-76
2021/04/28 09:33:58;;;;;;;15.60;10.63;;;27.50;34.90;;;;;;4893705;29;20036;-83
2021/04/28 09:36:30;;;;;;;20.15;10.68;;;27.70;33.10;;;;;;4892507;29;20025;-81
2021/04/28 09:38:58;;;;;;;17.10;10.38;;;27.50;32.10;;;;;;4883809;29;20088;-78
2021/04/28 09:41:52;;;;;;;19.33;10.55;;;26.50;32.60;;;;;;4886275;29;20041;-78
2021/04/28 09:44:20;;;;;;;14.40;9.80;;;27.60;32.90;;;;;;4892358;29;20391;-79
2021/04/28 09:47:09;;;;;;;14.20;10.07;;;27.70;31.00;;;;;;4898076;29;20029;-87
2021/04/28 09:49:53;;;;;;;13.35;9.90;;;27.50;32.80;;;;;;4879432;29;20471;-89
2021/04/28 09:52:29;;;;;;;13.93;8.95;;;27.80;33.00;;;;;;4897603;29;20082;-80
2021/04/28 09:54:59;;;;;;;17.52;10.35;;;28.10;31.90;;;;;;4895703;29;20110;-76
2021/04/28 09:57:44;;;;;;;11.85;9.18;;;27.50;31.90;;;;;;4895607;29;20060;-76
2021/04/28 10:00:24;;;;;;;16.65;9.77;;;27.90;30.80;;;;;;4885929;29;20140;-73
2021/04/28 10:02:53;;;;;;;19.48;9.85;;;27.70;30.70;;;;;;4886485;29;20028;-77
2021/04/28 10:05:34;;;;;;;10.90;8.77;;;27.80;32.50;;;;;;4882984;29;20496;-77
2021/04/28 10:08:14;;;;;;;18.55;10.45;;;28.40;31.20;;;;;;4897806;29;20044;-77
2021/04/28 10:10:42;;;;;;;12.32;8.02;;;27.50;32.70;;;;;;4882351;29;20119;-79
2021/04/28 10:13:08;;;;;;;13.60;8.60;;;28.10;32.30;;;;;;4874192;29;20037;-79
2021/04/28 10:15:35;;;;;;;12.52;8.57;;;27.10;32.70;;;;;;4881807;29;20029;-77
2021/04/28 10:18:06;;;;;;;12.88;7.90;;;26.70;32.20;;;;;;4884911;29;20036;-83
2021/04/28 10:20:34;;;;;;;10.43;7.10;;;25.50;31.80;;;;;;4877841;29;20133;-78
2021/04/28 10:23:05;;;;;;;13.40;7.95;;;25.00;35.20;;;;;;4896145;29;20080;-78
2021/04/28 10:25:32;;;;;;;16.48;6.95;;;26.20;32.60;;;;;;4866326;29;20060;-81
2021/04/28 10:28:00;;;;;;;11.52;7.68;;;27.10;31.90;;;;;;4889280;29;20450;-83
2021/04/28 10:30:26;;;;;;;13.38;7.05;;;27.40;29.90;;;;;;4868511;29;20028;-84
2021/04/28 10:32:55;;;;;;;9.77;6.53;;;25.50;30.60;;;;;;4892354;29;20037;-81
2021/04/28 10:35:22;;;;;;;10.20;6.18;;;26.30;30.50;;;;;;4886488;29;20029;-84
2021/04/28 10:37:50;;;;;;;6.47;5.72;;;26.90;28.50;;;;;;4891227;29;20057;-82
2021/04/28 10:40:19;;;;;;;9.43;5.20;;;27.10;27.70;;;;;;4888144;29;20028;-74
2021/04/28 10:42:46;;;;;;;8.45;5.63;;;27.00;26.20;;;;;;4880575;29;20056;-79
2021/04/28 10:45:41;;;;;;;14.20;6.07;;;27.00;28.30;;;;;;4875894;29;20021;-82
2021/04/28 10:48:11;;;;;;;15.80;7.38;;;27.00;30.00;;;;;;4896744;29;20035;-75
2021/04/28 10:50:45;;;;;;;8.85;5.90;;;26.00;29.80;;;;;;4891404;29;20028;-81
2021/04/28 10:53:13;;;;;;;8.63;5.65;;;24.90;29.80;;;;;;4896668;29;20033;-82
2021/04/28 10:55:50;;;;;;;9.27;5.57;;;23.30;33.40;;;;;;4883629;29;20033;-82
2021/04/28 10:58:31;;;;;;;7.07;5.50;;;23.70;32.50;;;;;;4883248;29;20112;-81
2021/04/28 11:01:05;;;;;;;9.17;4.93;;;24.60;33.50;;;;;;4896832;29;20039;-76
2021/04/28 11:03:34;;;;;;;7.55;5.22;;;25.40;31.00;;;;;;4889637;29;20017;-77
2021/04/28 11:06:21;;;;;;;9.93;4.85;;;25.00;32.50;;;;;;4894394;29;20088;-81
2021/04/28 11:09:07;;;;;;;11.48;4.65;;;23.50;32.70;;;;;;4886885;29;20057;-81
2021/04/28 11:11:36;;;;;;;12.75;4.50;;;23.00;36.80;;;;;;4877245;29;20040;-76
2021/04/28 11:14:11;;;;;;;16.38;4.13;;;23.80;35.10;;;;;;4877142;29;20084;-76
2021/04/28 11:16:47;;;;;;;7.03;4.10;;;25.10;34.10;;;;;;4876976;29;20032;-81
2021/04/28 11:19:30;;;;;;;7.72;4.45;;;25.30;32.40;;;;;;4883093;29;20035;-82
2021/04/28 11:22:15;;;;;;;10.27;4.15;;;25.00;33.00;;;;;;4891256;29;20392;-81
2021/04/28 11:24:52;;;;;;;9.30;4.47;;;25.30;32.50;;;;;;4877047;29;20029;-82
2021/04/28 11:27:41;;;;;;;6.85;4.10;;;23.70;32.40;;;;;;4882162;29;20032;-76
2021/04/28 11:30:21;;;;;;;7.20;4.20;;;22.70;37.40;;;;;;4889952;29;20107;-83
2021/04/28 11:33:31;;;;;;;6.20;4.32;;;22.80;35.20;;;;;;4883297;29;20126;-82
2021/04/28 11:35:56;;;;;;;8.13;4.13;;;23.40;36.50;;;;;;4883670;29;20472;-82
2021/04/28 11:38:22;;;;;;;13.95;4.53;;;22.10;37.80;;;;;;4883195;29;20032;-80
2021/04/28 11:40:50;;;;;;;6.38;4.25;;;22.60;36.20;;;;;;4892451;29;20351;-76
2021/04/28 11:43:24;;;;;;;10.75;4.60;;;23.70;35.50;;;;;;4882463;29;20048;-76
2021/04/28 11:45:52;;;;;;;13.68;4.85;;;24.20;35.90;;;;;;4891595;29;20129;-80
2021/04/28 11:48:25;;;;;;;8.23;4.80;;;24.10;34.30;;;;;;4893912;29;20028;-78
2021/04/28 11:50:56;;;;;;;8.68;4.47;;;23.40;35.60;;;;;;4877908;29;20044;-81
2021/04/28 11:53:23;;;;;;;8.38;4.22;;;21.80;37.50;;;;;;4885580;29;20131;-77
2021/04/28 11:55:50;;;;;;;8.45;4.03;;;21.20;41.10;;;;;;4892736;29;20064;-82
2021/04/28 11:58:19;;;;;;;13.85;3.65;;;21.20;39.60;;;;;;4863855;29;20039;-76
2021/04/28 12:00:45;;;;;;;5.10;3.63;;;20.20;42.20;;;;;;4881401;29;20404;-76
2021/04/28 12:03:11;;;;;;;8.27;4.30;;;20.00;42.30;;;;;;4879591;29;20054;-81
2021/04/28 12:05:36;;;;;;;10.43;4.07;;;19.20;46.10;;;;;;4894913;29;20111;-77
2021/04/28 12:08:08;;;;;;;6.70;3.95;;;20.00;43.00;;;;;;4888575;29;20141;-76
2021/04/28 12:10:36;;;;;;;6.32;3.72;;;20.60;39.00;;;;;;4884800;29;20040;-77
2021/04/28 12:13:10;;;;;;;13.73;4.40;;;20.30;36.50;;;;;;4895513;29;20029;-81
2021/04/28 12:15:36;;;;;;;5.97;3.78;;;19.40;36.70;;;;;;4869428;29;20032;-86
2021/04/28 12:18:03;;;;;;;9.20;4.10;;;19.20;38.70;;;;;;4870402;29;20496;-77
2021/04/28 12:20:28;;;;;;;5.97;3.78;;;19.00;41.70;;;;;;4880099;29;20068;-77
2021/04/28 12:22:54;;;;;;;6.32;4.15;;;19.90;41.10;;;;;;4893932;29;20048;-85
2021/04/28 12:25:20;;;;;;;7.63;4.18;;;19.40;41.00;;;;;;4876143;29;20496;-85
2021/04/28 12:27:47;;;;;;;5.05;3.25;;;19.00;42.10;;;;;;4883377;29;20026;-86
2021/04/28 12:30:14;;;;;;;6.47;3.05;;;18.70;44.10;;;;;;4872825;29;20029;-85
2021/04/28 12:32:45;;;;;;;8.85;2.83;;;19.20;44.80;;;;;;4877219;29;20033;-81
2021/04/28 12:35:19;;;;;;;6.35;2.20;;;19.80;45.50;;;;;;4894854;29;20099;-84
2021/04/28 12:37:58;;;;;;;3.58;2.15;;;20.20;42.90;;;;;;4887448;29;20032;-81
2021/04/28 12:40:40;;;;;;;4.68;1.40;;;20.80;43.00;;;;;;4888370;29;20024;-82
2021/04/28 12:43:10;;;;;;;3.30;1.98;;;20.50;42.70;;;;;;4889436;29;20148;-85